Time;durP1;ratioP1;P1;durP2;ratioP2;P2;SDS_P1;SDS_P2;PMS_P1;PMS_P2;Temp;Humidity;BMP_temperature;BMP_pressure;BME280_temperature;BME280_humidity;BME280_pressure;Samples;Min_cycle;Max_cycle;Signal;HPM_P1;HPM_P2
2020/12/30 00:00:38;;;;;;;96.03;79.55;;;10.20;85.80;;;;;;5093460;28;20461;-72
2020/12/30 00:03:04;;;;;;;56.17;37.95;;;10.20;85.40;;;;;;5094792;28;20110;-72
2020/12/30 00:05:30;;;;;;;35.50;23.15;;;10.20;85.90;;;;;;5093678;28;20534;-71
2020/12/30 00:07:56;;;;;;;40.35;25.95;;;10.20;86.30;;;;;;5094174;28;20389;-72
2020/12/30 00:10:22;;;;;;;38.17;22.88;;;10.20;86.30;;;;;;5093407;28;20024;-72
2020/12/30 00:12:49;;;;;;;30.00;18.33;;;10.10;86.30;;;;;;5093154;28;20534;-72
2020/12/30 00:15:15;;;;;;;30.75;19.92;;;10.20;86.70;;;;;;5093039;28;20111;-73
2020/12/30 00:17:42;;;;;;;19.90;11.43;;;10.20;86.50;;;;;;5093371;28;20440;-71
2020/12/30 00:20:11;;;;;;;25.73;15.23;;;10.20;86.80;;;;;;5093246;28;20027;-70
2020/12/30 00:22:37;;;;;;;23.95;11.02;;;10.20;86.00;;;;;;5094280;28;20111;-71
2020/12/30 00:25:06;;;;;;;28.48;16.10;;;10.20;86.90;;;;;;5094339;28;20099;-70
2020/12/30 00:27:33;;;;;;;25.52;13.70;;;10.30;86.70;;;;;;5094326;28;20028;-72
2020/12/30 00:29:59;;;;;;;48.03;22.55;;;10.30;86.90;;;;;;5094010;28;20035;-73
2020/12/30 00:32:25;;;;;;;32.97;15.88;;;10.30;87.20;;;;;;5094028;28;20024;-72
2020/12/30 00:34:51;;;;;;;13.52;8.70;;;10.30;87.20;;;;;;5092805;28;20502;-70
2020/12/30 00:37:17;;;;;;;19.00;10.82;;;10.40;87.00;;;;;;5093946;28;20026;-73
2020/12/30 00:39:42;;;;;;;20.55;10.13;;;10.40;87.00;;;;;;5092617;28;20032;-73
2020/12/30 00:42:08;;;;;;;18.73;10.98;;;10.40;86.60;;;;;;5092328;28;20095;-72
2020/12/30 00:44:34;;;;;;;11.23;7.00;;;10.40;86.50;;;;;;5092807;28;20427;-73
2020/12/30 00:47:01;;;;;;;14.60;9.00;;;10.40;86.40;;;;;;5092807;28;20533;-73
2020/12/30 00:49:27;;;;;;;15.77;10.02;;;10.40;86.40;;;;;;5092496;28;20102;-72
2020/12/30 00:51:57;;;;;;;29.35;13.57;;;10.40;86.40;;;;;;5092737;28;20024;-73
2020/12/30 00:54:24;;;;;;;21.92;10.45;;;10.40;86.50;;;;;;5092708;28;20038;-73
2020/12/30 00:56:50;;;;;;;10.68;5.90;;;10.40;86.40;;;;;;5092399;28;20404;-71
2020/12/30 00:59:17;;;;;;;10.95;5.82;;;10.40;86.70;;;;;;5092623;28;20031;-72
2020/12/30 01:01:43;;;;;;;9.93;5.03;;;10.40;86.70;;;;;;5092556;28;20073;-71
2020/12/30 01:04:09;;;;;;;10.20;4.80;;;10.40;86.00;;;;;;5092195;28;20040;-71
2020/12/30 01:06:36;;;;;;;13.50;7.22;;;10.50;86.00;;;;;;5094143;28;20073;-72
2020/12/30 01:09:06;;;;;;;9.57;4.70;;;10.50;86.30;;;;;;5092856;28;20042;-71
2020/12/30 01:11:32;;;;;;;21.58;9.82;;;10.50;86.10;;;;;;5092198;28;20081;-70
2020/12/30 01:13:58;;;;;;;10.07;4.40;;;10.50;86.50;;;;;;5093799;28;20048;-70
2020/12/30 01:16:25;;;;;;;12.35;6.07;;;10.40;85.90;;;;;;5092474;28;20028;-73
2020/12/30 01:18:51;;;;;;;9.73;5.63;;;10.40;86.20;;;;;;5092078;28;20035;-73
2020/12/30 01:21:17;;;;;;;8.77;4.40;;;10.40;86.10;;;;;;5092418;28;20024;-71
2020/12/30 01:23:43;;;;;;;9.68;4.75;;;10.50;86.50;;;;;;5091742;28;20032;-72
2020/12/30 01:26:10;;;;;;;9.80;4.47;;;10.50;86.00;;;;;;5092648;28;20480;-73
2020/12/30 01:28:36;;;;;;;13.40;5.10;;;10.50;85.90;;;;;;5092403;28;20035;-71
2020/12/30 01:31:03;;;;;;;11.25;5.05;;;10.50;86.10;;;;;;5093311;28;20028;-71
2020/12/30 01:33:29;;;;;;;10.38;5.50;;;10.50;86.10;;;;;;5092309;28;20036;-72
2020/12/30 01:35:54;;;;;;;9.48;4.63;;;10.50;86.20;;;;;;5092277;28;20032;-72
2020/12/30 01:38:20;;;;;;;9.85;4.53;;;10.50;85.90;;;;;;5092036;28;20049;-71
2020/12/30 01:40:46;;;;;;;13.23;6.43;;;10.50;86.00;;;;;;5092206;28;20483;-72
2020/12/30 01:43:14;;;;;;;12.68;5.15;;;10.50;86.20;;;;;;5092136;28;20043;-72
2020/12/30 01:45:40;;;;;;;8.95;4.55;;;10.50;86.30;;;;;;5092724;28;20060;-72
2020/12/30 01:48:15;;;;;;;11.00;4.63;;;10.50;86.40;;;;;;5097139;28;20505;-74
2020/12/30 01:50:41;;;;;;;8.60;4.35;;;10.50;86.50;;;;;;5097134;28;20028;-73
2020/12/30 01:53:08;;;;;;;9.45;5.35;;;10.50;86.40;;;;;;5095823;28;20060;-72
2020/12/30 01:55:37;;;;;;;12.82;7.53;;;10.50;86.50;;;;;;5097598;28;20024;-72
2020/12/30 01:58:03;;;;;;;10.18;4.80;;;10.50;86.70;;;;;;5095958;28;20111;-73
2020/12/30 02:00:29;;;;;;;12.77;5.47;;;10.50;86.50;;;;;;5096649;28;20060;-72
2020/12/30 02:03:01;;;;;;;11.13;6.25;;;10.40;86.60;;;;;;5096060;28;20456;-71
2020/12/30 02:05:34;;;;;;;11.32;4.90;;;10.40;87.00;;;;;;5096372;28;20482;-71
2020/12/30 02:08:01;;;;;;;10.38;6.20;;;10.40;87.00;;;;;;5096821;28;20024;-71
2020/12/30 02:10:27;;;;;;;10.85;4.50;;;10.40;87.00;;;;;;5095653;28;20029;-72
2020/12/30 02:12:54;;;;;;;9.50;5.18;;;10.40;86.90;;;;;;5095175;28;20024;-71
2020/12/30 02:15:27;;;;;;;11.63;4.18;;;10.40;86.80;;;;;;5096970;28;20074;-73
2020/12/30 02:17:53;;;;;;;13.50;4.38;;;10.40;87.10;;;;;;5096163;28;20411;-71
2020/12/30 02:20:19;;;;;;;11.95;4.78;;;10.40;87.10;;;;;;5095231;28;20024;-71
2020/12/30 02:22:59;;;;;;;10.65;4.38;;;10.30;87.10;;;;;;5096812;28;20028;-71
2020/12/30 02:25:25;;;;;;;13.05;5.05;;;10.30;87.10;;;;;;5095487;28;20039;-73
2020/12/30 02:27:50;;;;;;;17.33;7.57;;;10.30;87.20;;;;;;5096358;28;20020;-71
2020/12/30 02:30:18;;;;;;;25.40;10.73;;;10.30;87.00;;;;;;5096917;28;20024;-72
2020/12/30 02:32:46;;;;;;;13.15;5.25;;;10.20;86.70;;;;;;5095015;28;20024;-72
2020/12/30 02:35:11;;;;;;;58.10;25.67;;;10.30;86.90;;;;;;5094986;28;20038;-74
2020/12/30 02:37:37;;;;;;;33.45;14.88;;;10.30;86.70;;;;;;5095234;28;20028;-73
2020/12/30 02:40:04;;;;;;;13.02;6.13;;;10.20;86.30;;;;;;5094839;28;20077;-71
2020/12/30 02:42:30;;;;;;;43.33;19.73;;;10.30;86.50;;;;;;5096196;28;20108;-73
2020/12/30 02:45:02;;;;;;;10.15;4.05;;;10.30;86.50;;;;;;5094993;28;20063;-72
2020/12/30 02:47:28;;;;;;;13.05;4.97;;;10.20;86.60;;;;;;5096355;28;20032;-74
2020/12/30 02:49:54;;;;;;;15.90;7.30;;;10.20;86.50;;;;;;5096262;28;20081;-70
2020/12/30 02:52:20;;;;;;;35.15;16.73;;;10.20;86.70;;;;;;5094927;28;20028;-74
2020/12/30 02:54:45;;;;;;;29.40;16.77;;;10.20;86.30;;;;;;5094509;28;20023;-72
2020/12/30 02:57:11;;;;;;;47.83;20.92;;;10.20;86.20;;;;;;5094453;28;20051;-74
2020/12/30 02:59:37;;;;;;;24.60;11.68;;;10.20;86.10;;;;;;5094510;28;20024;-73
2020/12/30 03:02:03;;;;;;;26.67;12.57;;;10.20;86.20;;;;;;5094471;28;20032;-71
2020/12/30 03:04:28;;;;;;;12.25;4.60;;;10.20;86.20;;;;;;5095967;28;20054;-73
2020/12/30 03:06:54;;;;;;;23.90;15.15;;;10.20;86.10;;;;;;5095479;28;20145;-71
2020/12/30 03:09:20;;;;;;;9.65;4.05;;;10.20;86.10;;;;;;5094295;28;20024;-73
2020/12/30 03:11:49;;;;;;;10.68;4.43;;;10.20;86.10;;;;;;5096267;28;20099;-71
2020/12/30 03:14:15;;;;;;;19.83;10.80;;;10.20;86.00;;;;;;5094447;28;20603;-72
2020/12/30 03:16:41;;;;;;;16.80;6.82;;;10.20;85.80;;;;;;5095523;28;20024;-72
2020/12/30 03:19:07;;;;;;;8.40;3.40;;;10.30;85.70;;;;;;5095737;28;20035;-72
2020/12/30 03:21:33;;;;;;;17.90;9.63;;;10.30;85.60;;;;;;5094502;28;20027;-71
2020/12/30 03:23:58;;;;;;;14.45;7.28;;;10.30;85.60;;;;;;5093887;28;20032;-72
2020/12/30 03:26:25;;;;;;;10.30;4.30;;;10.30;85.30;;;;;;5096119;28;20032;-71
2020/12/30 03:28:50;;;;;;;17.83;9.60;;;10.30;85.20;;;;;;5094214;28;20028;-72
2020/12/30 03:31:16;;;;;;;14.30;6.07;;;10.40;85.00;;;;;;5093873;28;20031;-73
2020/12/30 03:33:42;;;;;;;10.13;3.63;;;10.30;85.20;;;;;;5094133;28;20131;-71
2020/12/30 03:36:08;;;;;;;12.18;4.35;;;10.40;85.00;;;;;;5094354;28;20028;-72
2020/12/30 03:38:34;;;;;;;15.80;7.57;;;10.40;85.10;;;;;;5095006;28;20479;-72
2020/12/30 03:40:59;;;;;;;13.70;7.45;;;10.40;84.60;;;;;;5093887;28;20115;-72
2020/12/30 03:43:25;;;;;;;16.80;9.38;;;10.40;85.00;;;;;;5094860;28;20028;-71
2020/12/30 03:45:51;;;;;;;18.02;10.32;;;10.40;84.90;;;;;;5093649;28;20039;-72
2020/12/30 03:48:17;;;;;;;10.60;5.63;;;10.40;84.60;;;;;;5093810;28;20024;-73
2020/12/30 03:50:43;;;;;;;10.75;3.58;;;10.40;85.20;;;;;;5093484;28;20028;-71
2020/12/30 03:53:08;;;;;;;9.20;3.63;;;10.30;85.20;;;;;;5093769;28;20085;-72
2020/12/30 03:55:34;;;;;;;11.55;3.70;;;10.40;84.40;;;;;;5094708;28;20026;-71
2020/12/30 03:58:00;;;;;;;9.52;3.80;;;10.40;84.60;;;;;;5094596;28;20028;-71
2020/12/30 04:00:26;;;;;;;14.77;3.83;;;10.40;84.60;;;;;;5093609;28;20073;-73
2020/12/30 04:02:52;;;;;;;8.52;3.72;;;10.50;84.20;;;;;;5094985;28;20028;-73
2020/12/30 04:05:17;;;;;;;10.13;3.75;;;10.50;84.40;;;;;;5093115;28;20028;-70
2020/12/30 04:07:43;;;;;;;8.43;4.32;;;10.40;84.40;;;;;;5093226;28;20070;-73
2020/12/30 04:10:09;;;;;;;8.52;3.88;;;10.40;84.40;;;;;;5092949;28;20024;-72
2020/12/30 04:12:35;;;;;;;10.20;3.95;;;10.40;84.40;;;;;;5093318;28;20530;-71
2020/12/30 04:15:00;;;;;;;11.63;4.88;;;10.50;84.20;;;;;;5093221;28;20524;-73
2020/12/30 04:17:26;;;;;;;11.45;4.43;;;10.40;84.30;;;;;;5093896;28;20035;-73
2020/12/30 04:19:52;;;;;;;11.65;4.57;;;10.40;84.20;;;;;;5092941;28;20536;-72
2020/12/30 04:22:18;;;;;;;12.95;4.32;;;10.40;83.90;;;;;;5094836;28;20062;-73
2020/12/30 04:24:43;;;;;;;9.90;4.18;;;10.40;84.40;;;;;;5093127;28;20028;-74
2020/12/30 04:27:09;;;;;;;9.80;4.03;;;10.40;84.20;;;;;;5092840;28;20036;-72
2020/12/30 04:29:35;;;;;;;10.68;4.30;;;10.40;84.20;;;;;;5093667;28;20433;-71
2020/12/30 04:32:01;;;;;;;11.80;4.10;;;10.40;84.20;;;;;;5093039;28;20116;-73
2020/12/30 04:34:26;;;;;;;10.43;4.28;;;10.40;84.10;;;;;;5092673;28;20039;-71
2020/12/30 04:36:52;;;;;;;10.82;4.40;;;10.40;84.00;;;;;;5092972;28;20052;-70
2020/12/30 04:39:18;;;;;;;12.50;4.82;;;10.50;83.80;;;;;;5092903;28;20054;-73
2020/12/30 04:41:45;;;;;;;12.32;5.68;;;10.50;83.90;;;;;;5092638;28;20069;-72
2020/12/30 04:44:14;;;;;;;12.45;4.97;;;10.50;83.80;;;;;;5094387;28;20407;-72
2020/12/30 04:46:42;;;;;;;14.73;6.00;;;10.40;83.80;;;;;;5092775;28;20538;-72
2020/12/30 04:49:10;;;;;;;13.80;4.60;;;10.50;83.80;;;;;;5092786;28;20028;-73
2020/12/30 04:51:38;;;;;;;13.55;5.53;;;10.40;83.40;;;;;;5093349;28;20032;-71
2020/12/30 04:54:04;;;;;;;13.60;5.50;;;10.40;83.70;;;;;;5092469;28;20179;-72
2020/12/30 04:56:41;;;;;;;10.18;4.57;;;10.40;83.70;;;;;;5093718;28;20035;-72
2020/12/30 04:59:08;;;;;;;13.40;5.18;;;10.40;83.70;;;;;;5093652;28;20111;-72
2020/12/30 05:01:42;;;;;;;12.40;4.72;;;10.30;83.80;;;;;;5093866;28;20046;-72
2020/12/30 05:04:11;;;;;;;11.45;4.78;;;10.40;83.80;;;;;;5093885;28;20024;-72
2020/12/30 05:06:40;;;;;;;11.38;3.90;;;10.40;83.50;;;;;;5093130;28;20119;-72
2020/12/30 05:09:06;;;;;;;8.93;4.20;;;10.40;83.40;;;;;;5093563;28;20059;-71
2020/12/30 05:11:32;;;;;;;9.00;3.80;;;10.30;83.80;;;;;;5093114;28;20032;-72
2020/12/30 05:13:58;;;;;;;11.63;5.05;;;10.30;83.70;;;;;;5094158;28;20530;-70
2020/12/30 05:16:28;;;;;;;10.02;5.38;;;10.40;83.90;;;;;;5092148;28;20078;-72
2020/12/30 05:19:04;;;;;;;13.90;5.68;;;10.30;83.90;;;;;;5094568;28;20085;-73
2020/12/30 05:21:30;;;;;;;17.50;7.03;;;10.30;84.10;;;;;;5097053;28;20028;-73
2020/12/30 05:23:56;;;;;;;21.65;7.63;;;10.30;84.10;;;;;;5097536;28;20076;-71
2020/12/30 05:26:23;;;;;;;18.63;6.65;;;10.40;84.00;;;;;;5096575;28;20028;-71
2020/12/30 05:28:52;;;;;;;16.08;6.20;;;10.40;83.80;;;;;;5098033;28;20107;-72
2020/12/30 05:31:18;;;;;;;16.23;8.20;;;10.40;83.90;;;;;;5096996;28;20511;-73
2020/12/30 05:33:44;;;;;;;24.38;11.98;;;10.40;83.70;;;;;;5097422;28;20028;-71
2020/12/30 05:36:10;;;;;;;13.30;6.13;;;10.40;83.70;;;;;;5096081;28;20027;-73
2020/12/30 05:38:36;;;;;;;14.52;5.38;;;10.40;84.10;;;;;;5098194;28;20085;-73
2020/12/30 05:41:02;;;;;;;14.52;7.85;;;10.40;84.30;;;;;;5097895;28;20028;-71
2020/12/30 05:43:28;;;;;;;14.65;6.30;;;10.40;84.40;;;;;;5097230;28;20032;-74
2020/12/30 05:45:54;;;;;;;12.18;5.95;;;10.50;84.00;;;;;;5096241;28;20115;-71
2020/12/30 05:48:22;;;;;;;11.65;5.55;;;10.50;84.10;;;;;;5097387;28;20032;-72
2020/12/30 05:50:55;;;;;;;12.93;6.68;;;10.50;83.80;;;;;;5097025;28;20077;-69
2020/12/30 05:53:23;;;;;;;12.15;5.75;;;10.50;84.20;;;;;;5095395;28;20039;-72
2020/12/30 05:56:07;;;;;;;12.27;6.25;;;10.50;84.40;;;;;;5094108;28;20039;-70
2020/12/30 05:58:40;;;;;;;13.13;6.10;;;10.50;84.10;;;;;;5095430;28;20473;-70
2020/12/30 06:01:27;;;;;;;12.57;7.23;;;10.40;84.40;;;;;;5096354;28;20466;-72
2020/12/30 06:03:54;;;;;;;10.98;5.55;;;10.50;84.50;;;;;;5095647;28;20574;-70
2020/12/30 06:06:21;;;;;;;13.75;7.25;;;10.50;83.80;;;;;;5096490;28;20031;-70
2020/12/30 06:08:50;;;;;;;13.50;6.70;;;10.50;84.30;;;;;;5095353;28;20114;-71
2020/12/30 06:11:26;;;;;;;14.48;5.10;;;10.50;84.30;;;;;;5095406;28;20024;-70
2020/12/30 06:13:52;;;;;;;13.10;5.88;;;10.40;84.30;;;;;;5095474;28;20439;-72
2020/12/30 06:16:28;;;;;;;13.85;7.43;;;10.50;84.10;;;;;;5096915;28;20067;-70
2020/12/30 06:18:56;;;;;;;11.60;5.90;;;10.40;83.90;;;;;;5096364;28;20089;-72
2020/12/30 06:21:26;;;;;;;10.27;4.68;;;10.40;84.20;;;;;;5095508;28;20541;-70
2020/12/30 06:23:56;;;;;;;87.72;39.42;;;10.40;84.40;;;;;;5094650;28;20081;-70
2020/12/30 06:26:26;;;;;;;12.15;6.00;;;10.40;84.60;;;;;;5095110;28;20041;-70
2020/12/30 06:28:55;;;;;;;21.80;10.23;;;10.30;84.60;;;;;;5095416;28;20024;-73
2020/12/30 06:31:21;;;;;;;33.17;17.80;;;10.30;85.00;;;;;;5094580;28;20052;-70
2020/12/30 06:33:48;;;;;;;14.93;8.93;;;10.30;85.00;;;;;;5095040;28;20032;-70
2020/12/30 06:36:23;;;;;;;20.85;8.52;;;10.30;85.40;;;;;;5095236;28;20119;-70
2020/12/30 06:38:49;;;;;;;32.55;14.82;;;10.20;85.50;;;;;;5096339;28;20076;-69
2020/12/30 06:41:15;;;;;;;28.83;15.82;;;10.20;85.70;;;;;;5096409;28;20024;-72
2020/12/30 06:43:48;;;;;;;40.38;26.00;;;10.20;85.10;;;;;;5095032;28;20390;-72
2020/12/30 06:46:34;;;;;;;37.05;22.95;;;10.20;85.20;;;;;;5094786;28;20064;-70
2020/12/30 06:49:04;;;;;;;22.70;11.30;;;10.20;85.00;;;;;;5093793;28;20173;-71
2020/12/30 06:51:38;;;;;;;20.83;10.52;;;10.20;85.10;;;;;;5093418;28;20051;-71
2020/12/30 06:54:04;;;;;;;22.27;10.27;;;10.20;85.30;;;;;;5095971;28;20035;-71
2020/12/30 06:56:40;;;;;;;80.63;41.50;;;10.10;85.50;;;;;;5095438;28;20411;-70
2020/12/30 06:59:07;;;;;;;20.92;11.52;;;10.10;85.70;;;;;;5094865;28;20074;-72
2020/12/30 07:01:54;;;;;;;23.02;12.48;;;10.10;85.80;;;;;;5095758;28;20453;-71
2020/12/30 07:04:20;;;;;;;20.45;9.27;;;10.10;86.00;;;;;;5094673;28;20036;-73
2020/12/30 07:06:45;;;;;;;28.58;13.40;;;10.10;86.10;;;;;;5094345;28;20119;-71
2020/12/30 07:09:14;;;;;;;25.15;13.25;;;10.10;86.30;;;;;;5094619;28;20123;-72
2020/12/30 07:11:50;;;;;;;22.73;10.75;;;10.10;86.10;;;;;;5094586;28;20484;-71
2020/12/30 07:14:30;;;;;;;23.85;10.27;;;10.20;86.30;;;;;;5093820;28;20048;-70
2020/12/30 07:17:06;;;;;;;18.98;8.80;;;10.20;86.20;;;;;;5094546;28;20024;-70
2020/12/30 07:19:34;;;;;;;31.63;17.65;;;10.30;86.20;;;;;;5094418;28;20082;-70
2020/12/30 07:22:09;;;;;;;25.05;13.43;;;10.30;87.00;;;;;;5094295;28;20165;-71
2020/12/30 07:24:55;;;;;;;21.67;11.55;;;10.30;86.00;;;;;;5095851;28;20028;-72
2020/12/30 07:27:22;;;;;;;26.67;12.82;;;10.40;86.00;;;;;;5094820;28;20028;-72
2020/12/30 07:29:49;;;;;;;33.60;15.52;;;10.40;85.80;;;;;;5094015;28;20028;-68
2020/12/30 07:32:18;;;;;;;117.95;54.65;;;10.40;85.80;;;;;;5095170;28;20486;-71
2020/12/30 07:34:45;;;;;;;45.72;20.67;;;10.50;85.40;;;;;;5093768;28;20028;-72
2020/12/30 07:37:12;;;;;;;30.30;16.60;;;10.50;85.60;;;;;;5095072;28;20024;-72
2020/12/30 07:39:43;;;;;;;26.83;15.07;;;10.50;85.80;;;;;;5095061;28;20020;-71
2020/12/30 07:42:23;;;;;;;35.80;18.42;;;10.50;85.50;;;;;;5093775;28;20035;-72
2020/12/30 07:44:51;;;;;;;35.67;16.67;;;10.60;85.70;;;;;;5093060;28;20370;-71
2020/12/30 07:47:18;;;;;;;18.75;10.35;;;10.60;85.80;;;;;;5093688;28;20036;-73
2020/12/30 07:49:44;;;;;;;16.63;8.60;;;10.60;85.30;;;;;;5093784;28;20056;-71
2020/12/30 07:52:10;;;;;;;18.23;10.00;;;10.60;84.90;;;;;;5093783;28;20499;-70
2020/12/30 07:54:37;;;;;;;15.52;7.53;;;10.60;84.90;;;;;;5095011;28;20077;-73
2020/12/30 07:57:13;;;;;;;15.00;7.25;;;10.70;84.60;;;;;;5095122;28;20028;-69
2020/12/30 07:59:41;;;;;;;28.88;14.45;;;10.80;84.40;;;;;;5093713;28;20028;-70
2020/12/30 08:02:17;;;;;;;18.25;8.27;;;10.80;84.70;;;;;;5094565;28;20036;-70
2020/12/30 08:04:45;;;;;;;12.02;6.90;;;10.90;84.60;;;;;;5094197;28;20075;-71
2020/12/30 08:07:16;;;;;;;15.60;6.50;;;10.90;84.60;;;;;;5093468;28;20024;-71
2020/12/30 08:09:44;;;;;;;10.63;5.80;;;10.90;84.70;;;;;;5091850;28;20457;-72
2020/12/30 08:12:14;;;;;;;13.77;5.72;;;10.90;83.80;;;;;;5094409;28;20063;-71
2020/12/30 08:14:41;;;;;;;13.00;6.70;;;11.00;84.00;;;;;;5092858;28;20052;-70
2020/12/30 08:17:09;;;;;;;12.65;5.57;;;11.00;84.00;;;;;;5094521;28;20365;-70
2020/12/30 08:19:48;;;;;;;14.73;5.70;;;11.00;83.40;;;;;;5094566;28;20049;-70
2020/12/30 08:22:32;;;;;;;10.25;5.95;;;11.00;83.30;;;;;;5093156;28;20024;-72
2020/12/30 08:24:58;;;;;;;11.50;5.57;;;11.00;83.60;;;;;;5093899;28;20487;-70
2020/12/30 08:27:29;;;;;;;13.57;6.03;;;11.10;83.70;;;;;;5126675;27;20039;-71
2020/12/30 08:29:57;;;;;;;9.98;5.85;;;11.10;83.60;;;;;;5094656;28;20492;-73
2020/12/30 08:32:34;;;;;;;10.40;6.22;;;11.10;83.00;;;;;;5094018;28;20024;-70
2020/12/30 08:35:23;;;;;;;15.80;9.75;;;11.20;83.00;;;;;;5094024;28;20032;-70
2020/12/30 08:38:02;;;;;;;15.02;8.27;;;11.30;82.60;;;;;;5092930;28;20399;-72
2020/12/30 08:40:34;;;;;;;17.40;9.77;;;11.30;83.00;;;;;;5092953;28;20134;-70
2020/12/30 08:43:20;;;;;;;15.15;10.32;;;11.30;83.10;;;;;;5092872;28;20025;-68
2020/12/30 08:45:48;;;;;;;12.85;6.90;;;11.40;82.00;;;;;;5092632;28;20516;-70
2020/12/30 08:48:19;;;;;;;16.48;7.82;;;11.60;81.20;;;;;;5093787;28;20047;-72
2020/12/30 08:50:46;;;;;;;14.07;8.52;;;11.60;80.90;;;;;;5094457;28;20031;-70
2020/12/30 08:53:13;;;;;;;11.82;6.93;;;11.70;80.30;;;;;;5092430;28;20047;-70
2020/12/30 08:55:39;;;;;;;15.38;7.43;;;11.80;80.70;;;;;;5092276;28;20020;-70
2020/12/30 08:58:05;;;;;;;14.80;9.25;;;11.70;80.70;;;;;;5092663;28;20024;-70
2020/12/30 09:00:36;;;;;;;21.27;11.80;;;11.80;80.60;;;;;;5093917;28;20358;-69
2020/12/30 09:03:12;;;;;;;30.30;16.15;;;11.80;80.50;;;;;;5093902;28;20063;-62
2020/12/30 09:05:39;;;;;;;15.93;10.55;;;11.80;80.60;;;;;;5093608;28;20039;-61
2020/12/30 09:08:19;;;;;;;16.52;9.35;;;11.80;80.50;;;;;;5093888;28;20077;-62
2020/12/30 09:10:46;;;;;;;16.65;11.05;;;11.80;80.30;;;;;;5093839;28;20376;-64
2020/12/30 09:13:19;;;;;;;19.00;12.27;;;11.70;80.80;;;;;;5093680;28;20075;-68
2020/12/30 09:15:57;;;;;;;17.20;9.38;;;11.70;81.70;;;;;;5092756;28;20044;-71
2020/12/30 09:18:26;;;;;;;19.00;10.13;;;11.70;82.50;;;;;;5092150;28;20036;-74
2020/12/30 09:20:52;;;;;;;24.17;14.40;;;11.60;83.50;;;;;;5093702;28;20069;-69
2020/12/30 09:23:23;;;;;;;26.25;15.57;;;11.50;84.70;;;;;;5093364;28;20032;-72
2020/12/30 09:25:49;;;;;;;29.75;16.23;;;11.50;85.80;;;;;;5091499;28;20034;-70
2020/12/30 09:28:17;;;;;;;28.60;17.13;;;11.40;86.30;;;;;;5091925;28;20028;-70
2020/12/30 09:30:43;;;;;;;44.65;26.17;;;11.40;87.50;;;;;;5093049;28;20566;-70
2020/12/30 09:33:20;;;;;;;43.55;25.38;;;11.40;88.30;;;;;;5091935;28;20089;-70
2020/12/30 09:35:47;;;;;;;60.08;33.92;;;11.30;88.60;;;;;;5093561;28;20031;-72
2020/12/30 09:38:19;;;;;;;31.45;17.92;;;11.20;90.10;;;;;;5092698;28;20052;-72
2020/12/30 09:40:46;;;;;;;39.83;23.80;;;11.20;90.30;;;;;;5093679;28;20024;-71
2020/12/30 09:43:20;;;;;;;38.83;21.33;;;11.20;90.30;;;;;;5092767;28;20028;-71
2020/12/30 09:45:49;;;;;;;32.50;19.02;;;11.20;88.30;;;;;;5092051;28;20428;-71
2020/12/30 09:48:19;;;;;;;94.28;55.13;;;11.30;88.70;;;;;;5092534;28;20042;-69
2020/12/30 09:50:50;;;;;;;95.00;54.25;;;11.30;89.40;;;;;;5092532;28;20461;-70
2020/12/30 09:53:16;;;;;;;33.63;21.35;;;11.30;90.30;;;;;;5091977;28;20073;-68
2020/12/30 09:55:50;;;;;;;31.55;18.63;;;11.30;90.50;;;;;;5093118;28;20031;-73
2020/12/30 09:58:16;;;;;;;67.10;38.42;;;11.20;89.30;;;;;;5091845;28;20031;-70
2020/12/30 10:00:42;;;;;;;59.45;32.17;;;11.20;89.30;;;;;;5093548;28;20122;-70
2020/12/30 10:03:08;;;;;;;176.02;83.57;;;11.20;90.00;;;;;;5126737;28;20024;-70
2020/12/30 10:05:34;;;;;;;31.60;21.02;;;11.20;89.90;;;;;;5092863;28;20036;-72
2020/12/30 10:08:00;;;;;;;85.15;43.70;;;11.20;90.10;;;;;;5095112;28;20465;-71
2020/12/30 10:10:26;;;;;;;343.08;162.30;;;11.20;90.10;;;;;;5129965;27;20024;-72
2020/12/30 10:12:52;;;;;;;330.08;155.65;;;11.20;90.40;;;;;;5095134;28;20028;-72
2020/12/30 10:15:18;;;;;;;236.02;111.55;;;11.20;90.00;;;;;;5097134;28;20036;-71
2020/12/30 10:17:45;;;;;;;251.10;118.35;;;11.20;90.60;;;;;;5096693;28;20028;-69
2020/12/30 10:20:11;;;;;;;547.65;279.00;;;11.10;90.90;;;;;;5095312;28;20024;-71
2020/12/30 10:22:39;;;;;;;104.78;53.10;;;11.20;90.90;;;;;;5095549;28;20481;-70
2020/12/30 10:25:06;;;;;;;54.10;31.58;;;11.20;90.70;;;;;;5096041;28;20036;-70
2020/12/30 10:27:33;;;;;;;72.22;45.97;;;11.20;91.20;;;;;;5096156;28;20085;-72
2020/12/30 10:29:58;;;;;;;66.00;34.97;;;11.20;91.20;;;;;;5129803;27;20028;-73
2020/12/30 10:32:24;;;;;;;48.40;28.08;;;11.20;91.40;;;;;;5129537;27;20408;-72
2020/12/30 10:34:50;;;;;;;55.67;33.10;;;11.20;92.00;;;;;;5096031;28;20028;-73
2020/12/30 10:37:19;;;;;;;80.15;49.65;;;11.10;91.80;;;;;;5096429;28;20020;-70
2020/12/30 10:39:48;;;;;;;186.10;122.05;;;11.10;91.60;;;;;;5096510;28;20031;-72
2020/12/30 10:42:14;;;;;;;129.95;83.72;;;11.10;91.90;;;;;;5095847;28;20054;-73
2020/12/30 10:44:40;;;;;;;138.10;95.80;;;11.10;91.80;;;;;;5095121;28;20126;-71
2020/12/30 10:47:06;;;;;;;115.97;78.63;;;11.10;91.80;;;;;;5096406;28;20414;-73
2020/12/30 10:49:32;;;;;;;86.90;55.42;;;11.10;92.10;;;;;;5128937;27;20036;-71
2020/12/30 10:51:57;;;;;;;95.00;57.22;;;11.10;92.60;;;;;;5129308;27;20024;-73
2020/12/30 10:54:23;;;;;;;74.68;46.45;;;11.10;91.60;;;;;;5128700;27;20043;-73
2020/12/30 10:56:50;;;;;;;72.65;47.55;;;11.10;92.20;;;;;;5129146;27;20032;-72
2020/12/30 10:59:17;;;;;;;102.90;65.47;;;11.10;93.10;;;;;;5096150;28;20024;-73
2020/12/30 11:01:43;;;;;;;134.35;83.45;;;11.00;93.30;;;;;;5096085;28;20031;-72
2020/12/30 11:04:09;;;;;;;105.35;65.00;;;11.00;92.90;;;;;;5094752;28;20047;-72
2020/12/30 11:06:35;;;;;;;78.22;47.88;;;11.00;92.90;;;;;;5094922;28;20024;-72
2020/12/30 11:09:01;;;;;;;69.43;44.75;;;11.00;93.20;;;;;;5128612;27;20035;-74
2020/12/30 11:11:26;;;;;;;80.70;49.58;;;11.00;93.30;;;;;;5129120;27;20443;-73
2020/12/30 11:13:52;;;;;;;87.53;52.13;;;11.00;93.00;;;;;;5128582;27;20378;-72
2020/12/30 11:16:18;;;;;;;110.93;75.22;;;11.10;93.50;;;;;;5128624;27;20028;-72
2020/12/30 11:18:44;;;;;;;116.15;76.82;;;11.10;93.40;;;;;;5095271;28;20457;-73
2020/12/30 11:21:10;;;;;;;86.82;56.70;;;11.10;92.80;;;;;;5094461;28;20469;-73
2020/12/30 11:23:36;;;;;;;68.25;49.00;;;11.10;93.50;;;;;;5095088;28;20090;-74
2020/12/30 11:26:01;;;;;;;68.40;46.33;;;11.10;93.80;;;;;;5095876;28;20476;-73
2020/12/30 11:28:28;;;;;;;63.15;45.42;;;11.10;93.60;;;;;;5128612;27;20024;-74
2020/12/30 11:30:54;;;;;;;61.28;40.83;;;11.10;93.10;;;;;;5128052;27;20084;-74
2020/12/30 11:33:20;;;;;;;92.38;56.40;;;11.10;93.60;;;;;;5094145;28;20115;-73
2020/12/30 11:35:45;;;;;;;69.15;43.85;;;11.20;93.60;;;;;;5095601;28;20024;-75
2020/12/30 11:38:11;;;;;;;64.75;39.20;;;11.20;94.10;;;;;;5094801;28;20031;-71
2020/12/30 11:40:40;;;;;;;52.90;34.70;;;11.10;93.80;;;;;;5093993;28;20026;-74
2020/12/30 11:43:06;;;;;;;51.60;35.90;;;11.10;93.90;;;;;;5128174;27;20028;-75
2020/12/30 11:45:32;;;;;;;60.58;40.80;;;11.10;94.30;;;;;;5093707;28;20059;-75
2020/12/30 11:47:59;;;;;;;63.75;42.03;;;11.10;94.40;;;;;;5093906;28;20031;-74
2020/12/30 11:50:25;;;;;;;65.90;40.50;;;11.10;94.40;;;;;;5093510;28;20063;-73
2020/12/30 11:52:51;;;;;;;56.97;36.97;;;11.10;94.30;;;;;;5095385;28;20021;-73
2020/12/30 11:55:17;;;;;;;58.35;38.05;;;11.10;94.90;;;;;;5093818;28;20037;-74
2020/12/30 11:57:43;;;;;;;53.83;36.63;;;11.10;94.70;;;;;;5093493;28;20020;-75
2020/12/30 12:00:10;;;;;;;56.22;38.03;;;11.10;94.30;;;;;;5093771;28;20277;-74
2020/12/30 12:02:36;;;;;;;54.38;35.35;;;11.20;94.30;;;;;;5093651;28;20027;-75
2020/12/30 12:05:03;;;;;;;56.72;36.72;;;11.20;94.30;;;;;;5127445;27;20038;-74
2020/12/30 12:07:29;;;;;;;51.75;33.90;;;11.20;94.20;;;;;;5093517;28;20028;-75
2020/12/30 12:09:56;;;;;;;46.10;30.88;;;11.30;94.10;;;;;;5094855;28;20027;-75
2020/12/30 12:12:22;;;;;;;42.97;28.90;;;11.40;94.20;;;;;;5094192;28;20039;-73
2020/12/30 12:14:48;;;;;;;44.15;28.77;;;11.60;93.80;;;;;;5094938;28;20075;-76
2020/12/30 12:17:14;;;;;;;41.30;26.48;;;11.80;93.70;;;;;;5127174;27;20477;-75
2020/12/30 12:19:40;;;;;;;42.20;27.50;;;11.80;93.20;;;;;;5127074;27;20028;-74
2020/12/30 12:22:06;;;;;;;38.13;24.13;;;11.80;92.70;;;;;;5127346;27;20034;-73
2020/12/30 12:24:32;;;;;;;35.85;22.02;;;11.70;92.90;;;;;;5127196;27;20036;-74
2020/12/30 12:26:58;;;;;;;34.00;24.33;;;11.60;93.00;;;;;;5127024;27;20066;-76
2020/12/30 12:29:35;;;;;;;40.78;25.70;;;11.50;93.30;;;;;;5093940;28;20024;-75
2020/12/30 12:32:21;;;;;;;39.13;26.38;;;11.50;93.50;;;;;;5093232;28;20031;-75
2020/12/30 12:34:49;;;;;;;35.90;24.60;;;11.40;93.60;;;;;;5093034;28;20488;-74
2020/12/30 12:37:17;;;;;;;41.05;26.65;;;11.40;93.80;;;;;;5093014;28;20354;-76